Addyston, OH

8:39 PM EDT on April 24, 2015 (GMT -0400)
Miami Township | | Change Station
CLOSE
Current Station
Personal Weather Station
Location: Cincinnati, OH
Elevation: 817 ft
Nearby Weather Stations

Elev 817 ft 39.14 °N, 84.70 °W | Updated 17 seconds ago

Overcast
Overcast
57.7 °F
Feels Like 57.7 °F
N
0.0
Wind Variable Wind from South
Gusts 0.0 mph

Today
High -- | Low -- °F
--% Chance of Precip.
Yesterday
High -- | Low -- °F
Precip. -- in
6:49 AM 8:24 PM
Waxing Crescent, 40% visible
Pressure 29.96 in
Visibility 10.0 miles
Clouds Scattered Clouds 9000 ft
Mostly Cloudy 11000 ft
Overcast 25000 ft
Dew Point 34 °F
Humidity 40%
Rainfall 0.00 in
Snow Depth Not available.
UV 0.9 out of 12
Pollen 10.50 out of 12
Air Quality Not available.
Flu Activity Regional
METAR KCVG 242352Z 16008KT 10SM SCT090 BKN110 OVC250 13/01 A2996 RMK AO2 SLP144 T01330006 10161 20133 57011

More Conditions Fewer Conditions

Pressure 29.96 in
Visibility 10.0 miles
Clouds Scattered Clouds 9000 ft
Mostly Cloudy 11000 ft
Overcast 25000 ft
Dew Point 34 °F
Humidity 40%
Rainfall 0.00 in
Snow Depth Not available.
UV 0.9 out of 12
Pollen 10.50 out of 12
Air Quality Not available.
Flu Activity Regional
METAR KCVG 242352Z 16008KT 10SM SCT090 BKN110 OVC250 13/01 A2996 RMK AO2 SLP144 T01330006 10161 20133 57011

More Conditions Fewer Conditions

10-Day Weather Forecast

Almanac

Astronomy

Apr. 24, 2015 Rise Set
Actual Time
Civil Twilight
Nautical Twilight
Astronomical Twilight
Moon
Length of Visible Light
Length of Day
Tomorrow will be .
, % of the Moon is Illuminated

Today's Extremes

State Highs State Lows

Community

WunderPhotos

Upload Photos

1,816,516 photos uploaded!

WunderBlogs® & News

Nearby

Air Quality

  Air Quality AQ Index Pollutant
Not available.

Snow Depth

Station Depth Elevation

Earthquake Activity

City Distance Mag. Time & Date
Minimum magnitude displayed is 2.5.

Coastal Water Temperatures

Place Temperature

Stations

Nearby Weather Stations

Station Location Temp. Windchill Dew Point Humidity Wind Precip. Elev Updated Type